sensor_id;sensor_type;location;lat;lon;timestamp;temperature;humidity
60039;DHT22;45916;52.734;6.544;2022-09-09T00:02:22;12.90;99.90
60039;DHT22;45916;52.734;6.544;2022-09-09T00:05:12;13.00;99.90
60039;DHT22;45916;52.734;6.544;2022-09-09T00:07:51;13.00;99.90
60039;DHT22;45916;52.734;6.544;2022-09-09T00:10:31;13.00;99.90
60039;DHT22;45916;52.734;6.544;2022-09-09T00:13:18;12.90;99.90
60039;DHT22;45916;52.734;6.544;2022-09-09T00:19:17;12.90;99.90
60039;DHT22;45916;52.734;6.544;2022-09-09T00:21:38;12.80;99.90
60039;DHT22;45916;52.734;6.544;2022-09-09T00:24:27;12.80;99.90
60039;DHT22;45916;52.734;6.544;2022-09-09T00:27:06;12.90;99.90
60039;DHT22;45916;52.734;6.544;2022-09-09T00:29:43;12.90;99.90
60039;DHT22;45916;52.734;6.544;2022-09-09T00:32:19;13.00;99.90
60039;DHT22;45916;52.734;6.544;2022-09-09T00:34:58;13.00;99.90
60039;DHT22;45916;52.734;6.544;2022-09-09T00:37:26;13.10;99.90
60039;DHT22;45916;52.734;6.544;2022-09-09T00:39:56;13.10;99.90
60039;DHT22;45916;52.734;6.544;2022-09-09T00:47:52;13.20;99.90
60039;DHT22;45916;52.734;6.544;2022-09-09T00:53:16;13.30;99.90
60039;DHT22;45916;52.734;6.544;2022-09-09T00:55:56;13.40;99.90
60039;DHT22;45916;52.734;6.544;2022-09-09T00:58:25;13.50;99.90
60039;DHT22;45916;52.734;6.544;2022-09-09T01:00:59;13.50;99.90
60039;DHT22;45916;52.734;6.544;2022-09-09T01:09:11;13.80;99.90
60039;DHT22;45916;52.734;6.544;2022-09-09T01:28:25;14.30;99.90
60039;DHT22;45916;52.734;6.544;2022-09-09T01:30:53;14.30;99.90
60039;DHT22;45916;52.734;6.544;2022-09-09T01:33:19;14.40;99.90
60039;DHT22;45916;52.734;6.544;2022-09-09T01:38:10;14.40;99.90
60039;DHT22;45916;52.734;6.544;2022-09-09T01:40:36;14.40;99.90
60039;DHT22;45916;52.734;6.544;2022-09-09T01:43:02;14.40;99.90
60039;DHT22;45916;52.734;6.544;2022-09-09T01:45:29;14.50;99.90
60039;DHT22;45916;52.734;6.544;2022-09-09T01:47:56;14.50;99.90
60039;DHT22;45916;52.734;6.544;2022-09-09T01:50:22;14.60;99.90
60039;DHT22;45916;52.734;6.544;2022-09-09T01:52:52;14.60;99.90
60039;DHT22;45916;52.734;6.544;2022-09-09T01:55:33;14.60;99.90
60039;DHT22;45916;52.734;6.544;2022-09-09T02:01:24;14.70;99.90
60039;DHT22;45916;52.734;6.544;2022-09-09T02:03:57;14.60;99.90
60039;DHT22;45916;52.734;6.544;2022-09-09T02:06:27;14.60;99.90
60039;DHT22;45916;52.734;6.544;2022-09-09T02:08:57;14.60;99.90
60039;DHT22;45916;52.734;6.544;2022-09-09T02:11:27;14.70;99.90
60039;DHT22;45916;52.734;6.544;2022-09-09T02:14:00;14.70;99.90
60039;DHT22;45916;52.734;6.544;2022-09-09T02:16:42;14.70;99.90
60039;DHT22;45916;52.734;6.544;2022-09-09T02:19:14;14.70;99.90
60039;DHT22;45916;52.734;6.544;2022-09-09T02:21:43;14.70;99.90
60039;DHT22;45916;52.734;6.544;2022-09-09T02:24:10;14.70;99.90
60039;DHT22;45916;52.734;6.544;2022-09-09T02:26:41;14.70;99.90
60039;DHT22;45916;52.734;6.544;2022-09-09T02:29:12;14.60;99.90
60039;DHT22;45916;52.734;6.544;2022-09-09T02:31:39;14.60;99.90
60039;DHT22;45916;52.734;6.544;2022-09-09T02:34:09;14.60;99.90
60039;DHT22;45916;52.734;6.544;2022-09-09T02:36:37;14.50;99.90
60039;DHT22;45916;52.734;6.544;2022-09-09T02:39:07;14.50;99.90
60039;DHT22;45916;52.734;6.544;2022-09-09T02:41:34;14.70;99.90
60039;DHT22;45916;52.734;6.544;2022-09-09T02:44:01;14.70;99.90
60039;DHT22;45916;52.734;6.544;2022-09-09T02:49:08;14.70;99.90
60039;DHT22;45916;52.734;6.544;2022-09-09T02:54:27;14.60;99.90
60039;DHT22;45916;52.734;6.544;2022-09-09T02:56:54;14.60;99.90
60039;DHT22;45916;52.734;6.544;2022-09-09T02:59:21;14.60;99.90
60039;DHT22;45916;52.734;6.544;2022-09-09T03:01:47;14.60;99.90
60039;DHT22;45916;52.734;6.544;2022-09-09T03:04:13;14.60;99.90
60039;DHT22;45916;52.734;6.544;2022-09-09T03:06:39;14.60;99.90
60039;DHT22;45916;52.734;6.544;2022-09-09T03:09:05;14.60;99.90
60039;DHT22;45916;52.734;6.544;2022-09-09T03:11:31;14.70;99.90
60039;DHT22;45916;52.734;6.544;2022-09-09T03:13:57;14.70;99.90
60039;DHT22;45916;52.734;6.544;2022-09-09T03:16:23;14.70;99.90
60039;DHT22;45916;52.734;6.544;2022-09-09T03:18:49;14.70;99.90
60039;DHT22;45916;52.734;6.544;2022-09-09T03:21:15;14.70;99.90
60039;DHT22;45916;52.734;6.544;2022-09-09T03:23:41;14.70;99.90
60039;DHT22;45916;52.734;6.544;2022-09-09T03:26:07;14.70;99.90
60039;DHT22;45916;52.734;6.544;2022-09-09T03:28:33;14.70;99.90
60039;DHT22;45916;52.734;6.544;2022-09-09T03:31:04;14.60;99.90
60039;DHT22;45916;52.734;6.544;2022-09-09T03:33:31;14.60;99.90
60039;DHT22;45916;52.734;6.544;2022-09-09T03:35:57;14.60;99.90
60039;DHT22;45916;52.734;6.544;2022-09-09T03:38:23;14.60;99.90
60039;DHT22;45916;52.734;6.544;2022-09-09T03:40:55;14.60;99.90
60039;DHT22;45916;52.734;6.544;2022-09-09T03:43:22;14.60;99.90
60039;DHT22;45916;52.734;6.544;2022-09-09T03:45:47;14.60;99.90
60039;DHT22;45916;52.734;6.544;2022-09-09T03:48:15;14.60;99.90
60039;DHT22;45916;52.734;6.544;2022-09-09T03:50:45;14.60;99.90
60039;DHT22;45916;52.734;6.544;2022-09-09T03:53:11;14.60;99.90
60039;DHT22;45916;52.734;6.544;2022-09-09T03:55:37;14.60;99.90
60039;DHT22;45916;52.734;6.544;2022-09-09T03:58:02;14.60;99.90
60039;DHT22;45916;52.734;6.544;2022-09-09T04:00:28;14.70;99.90
60039;DHT22;45916;52.734;6.544;2022-09-09T04:02:55;14.60;99.90
60039;DHT22;45916;52.734;6.544;2022-09-09T04:05:23;14.60;99.90
60039;DHT22;45916;52.734;6.544;2022-09-09T04:07:48;14.60;99.90
60039;DHT22;45916;52.734;6.544;2022-09-09T04:10:14;14.60;99.90
60039;DHT22;45916;52.734;6.544;2022-09-09T04:12:41;14.60;99.90
60039;DHT22;45916;52.734;6.544;2022-09-09T04:15:07;14.50;99.90
60039;DHT22;45916;52.734;6.544;2022-09-09T04:17:32;14.50;99.90
60039;DHT22;45916;52.734;6.544;2022-09-09T04:19:58;14.50;99.90
60039;DHT22;45916;52.734;6.544;2022-09-09T04:22:24;14.40;99.90
60039;DHT22;45916;52.734;6.544;2022-09-09T04:24:49;14.40;99.90
60039;DHT22;45916;52.734;6.544;2022-09-09T04:27:15;14.40;99.90
60039;DHT22;45916;52.734;6.544;2022-09-09T04:29:41;14.30;99.90
60039;DHT22;45916;52.734;6.544;2022-09-09T04:32:06;14.30;99.90
60039;DHT22;45916;52.734;6.544;2022-09-09T04:34:32;14.30;99.90
60039;DHT22;45916;52.734;6.544;2022-09-09T04:36:58;14.30;99.90
60039;DHT22;45916;52.734;6.544;2022-09-09T04:39:25;14.30;99.90
60039;DHT22;45916;52.734;6.544;2022-09-09T04:41:50;14.30;99.90
60039;DHT22;45916;52.734;6.544;2022-09-09T04:44:16;14.20;99.90
60039;DHT22;45916;52.734;6.544;2022-09-09T04:46:41;14.20;99.90
60039;DHT22;45916;52.734;6.544;2022-09-09T04:49:07;14.20;99.90
60039;DHT22;45916;52.734;6.544;2022-09-09T04:51:33;14.10;99.90
60039;DHT22;45916;52.734;6.544;2022-09-09T04:53:58;14.10;99.90
60039;DHT22;45916;52.734;6.544;2022-09-09T04:56:24;14.10;99.90
60039;DHT22;45916;52.734;6.544;2022-09-09T04:58:52;14.10;99.90
60039;DHT22;45916;52.734;6.544;2022-09-09T05:01:20;14.10;99.90
60039;DHT22;45916;52.734;6.544;2022-09-09T05:03:47;14.00;99.90
60039;DHT22;45916;52.734;6.544;2022-09-09T05:06:15;14.00;99.90
60039;DHT22;45916;52.734;6.544;2022-09-09T05:08:42;14.00;99.90
60039;DHT22;45916;52.734;6.544;2022-09-09T05:13:44;14.00;99.90
60039;DHT22;45916;52.734;6.544;2022-09-09T05:16:11;13.90;99.90
60039;DHT22;45916;52.734;6.544;2022-09-09T05:18:38;14.00;99.90
60039;DHT22;45916;52.734;6.544;2022-09-09T05:21:03;14.10;99.90
60039;DHT22;45916;52.734;6.544;2022-09-09T05:23:29;14.10;99.90
60039;DHT22;45916;52.734;6.544;2022-09-09T05:25:56;14.10;99.90
60039;DHT22;45916;52.734;6.544;2022-09-09T05:28:24;14.20;99.90
60039;DHT22;45916;52.734;6.544;2022-09-09T05:31:02;14.20;99.90
60039;DHT22;45916;52.734;6.544;2022-09-09T05:33:34;14.40;99.90
60039;DHT22;45916;52.734;6.544;2022-09-09T05:36:02;14.70;99.90
60039;DHT22;45916;52.734;6.544;2022-09-09T05:38:29;15.30;99.90
60039;DHT22;45916;52.734;6.544;2022-09-09T05:40:55;15.90;99.90
60039;DHT22;45916;52.734;6.544;2022-09-09T05:43:23;16.40;99.90
60039;DHT22;45916;52.734;6.544;2022-09-09T05:46:05;16.60;99.90
60039;DHT22;45916;52.734;6.544;2022-09-09T05:48:33;16.60;99.90
60039;DHT22;45916;52.734;6.544;2022-09-09T05:51:00;16.50;99.90
60039;DHT22;45916;52.734;6.544;2022-09-09T05:53:26;16.30;99.90
60039;DHT22;45916;52.734;6.544;2022-09-09T05:56:06;16.10;99.90
60039;DHT22;45916;52.734;6.544;2022-09-09T05:58:33;15.90;99.90
60039;DHT22;45916;52.734;6.544;2022-09-09T06:01:14;15.80;99.90
60039;DHT22;45916;52.734;6.544;2022-09-09T06:03:41;15.80;99.90
60039;DHT22;45916;52.734;6.544;2022-09-09T06:06:29;15.70;99.90
60039;DHT22;45916;52.734;6.544;2022-09-09T06:08:56;15.70;99.90
60039;DHT22;45916;52.734;6.544;2022-09-09T06:11:29;15.70;99.90
60039;DHT22;45916;52.734;6.544;2022-09-09T06:13:58;15.60;99.90
60039;DHT22;45916;52.734;6.544;2022-09-09T06:16:26;15.60;99.90
60039;DHT22;45916;52.734;6.544;2022-09-09T06:18:53;15.60;99.90
60039;DHT22;45916;52.734;6.544;2022-09-09T06:21:28;15.60;99.90
60039;DHT22;45916;52.734;6.544;2022-09-09T06:23:56;15.70;99.90
60039;DHT22;45916;52.734;6.544;2022-09-09T06:26:23;15.60;99.90
60039;DHT22;45916;52.734;6.544;2022-09-09T06:28:51;15.60;99.90
60039;DHT22;45916;52.734;6.544;2022-09-09T06:31:20;15.60;99.90
60039;DHT22;45916;52.734;6.544;2022-09-09T06:33:47;15.60;99.90
60039;DHT22;45916;52.734;6.544;2022-09-09T06:36:20;15.60;99.90
60039;DHT22;45916;52.734;6.544;2022-09-09T06:38:46;15.60;99.90
60039;DHT22;45916;52.734;6.544;2022-09-09T06:41:13;15.70;99.90
60039;DHT22;45916;52.734;6.544;2022-09-09T06:43:39;15.70;99.90
60039;DHT22;45916;52.734;6.544;2022-09-09T06:46:16;15.60;99.90
60039;DHT22;45916;52.734;6.544;2022-09-09T06:48:43;15.50;99.90
60039;DHT22;45916;52.734;6.544;2022-09-09T06:51:18;15.50;99.90
60039;DHT22;45916;52.734;6.544;2022-09-09T06:53:46;15.50;99.90
60039;DHT22;45916;52.734;6.544;2022-09-09T06:56:19;15.60;99.90
60039;DHT22;45916;52.734;6.544;2022-09-09T06:58:47;15.60;99.90
60039;DHT22;45916;52.734;6.544;2022-09-09T07:01:23;15.70;99.90
60039;DHT22;45916;52.734;6.544;2022-09-09T07:03:51;15.80;99.90
60039;DHT22;45916;52.734;6.544;2022-09-09T07:06:21;16.00;99.90
60039;DHT22;45916;52.734;6.544;2022-09-09T07:08:55;16.20;99.90
60039;DHT22;45916;52.734;6.544;2022-09-09T07:11:28;16.40;99.90
60039;DHT22;45916;52.734;6.544;2022-09-09T07:13:54;17.20;99.90
60039;DHT22;45916;52.734;6.544;2022-09-09T07:16:21;17.90;99.90
60039;DHT22;45916;52.734;6.544;2022-09-09T07:18:50;18.10;99.90
60039;DHT22;45916;52.734;6.544;2022-09-09T07:21:17;18.20;99.90
60039;DHT22;45916;52.734;6.544;2022-09-09T07:23:47;19.50;99.90
60039;DHT22;45916;52.734;6.544;2022-09-09T07:26:18;20.90;99.90
60039;DHT22;45916;52.734;6.544;2022-09-09T07:28:49;22.00;99.90
60039;DHT22;45916;52.734;6.544;2022-09-09T07:31:22;23.00;99.90
60039;DHT22;45916;52.734;6.544;2022-09-09T07:33:48;23.90;99.90
60039;DHT22;45916;52.734;6.544;2022-09-09T07:36:18;24.20;98.30
60039;DHT22;45916;52.734;6.544;2022-09-09T07:38:46;23.80;98.90
60039;DHT22;45916;52.734;6.544;2022-09-09T07:41:21;24.00;99.90
60039;DHT22;45916;52.734;6.544;2022-09-09T07:43:48;24.00;98.60
60039;DHT22;45916;52.734;6.544;2022-09-09T07:46:15;24.10;99.00
60039;DHT22;45916;52.734;6.544;2022-09-09T07:48:55;24.00;98.50
60039;DHT22;45916;52.734;6.544;2022-09-09T07:51:24;24.50;96.60
60039;DHT22;45916;52.734;6.544;2022-09-09T07:53:55;25.50;98.10
60039;DHT22;45916;52.734;6.544;2022-09-09T07:56:23;26.60;95.20
60039;DHT22;45916;52.734;6.544;2022-09-09T07:58:50;26.80;91.20
60039;DHT22;45916;52.734;6.544;2022-09-09T08:01:22;26.20;91.20
60039;DHT22;45916;52.734;6.544;2022-09-09T08:03:54;25.30;93.40
60039;DHT22;45916;52.734;6.544;2022-09-09T08:06:20;24.30;93.80
60039;DHT22;45916;52.734;6.544;2022-09-09T08:08:50;23.50;98.40
60039;DHT22;45916;52.734;6.544;2022-09-09T08:11:17;23.30;99.40
60039;DHT22;45916;52.734;6.544;2022-09-09T08:13:43;23.20;98.70
60039;DHT22;45916;52.734;6.544;2022-09-09T08:16:12;23.00;99.50
60039;DHT22;45916;52.734;6.544;2022-09-09T08:18:38;22.10;99.90
60039;DHT22;45916;52.734;6.544;2022-09-09T08:21:12;21.60;99.90
60039;DHT22;45916;52.734;6.544;2022-09-09T08:23:40;21.10;99.90
60039;DHT22;45916;52.734;6.544;2022-09-09T08:26:15;20.80;99.90
60039;DHT22;45916;52.734;6.544;2022-09-09T08:28:42;20.30;99.90
60039;DHT22;45916;52.734;6.544;2022-09-09T08:31:15;20.20;99.90
60039;DHT22;45916;52.734;6.544;2022-09-09T08:33:42;20.10;99.90
60039;DHT22;45916;52.734;6.544;2022-09-09T08:36:13;20.00;99.90
60039;DHT22;45916;52.734;6.544;2022-09-09T08:38:41;19.90;99.90
60039;DHT22;45916;52.734;6.544;2022-09-09T08:41:36;19.90;99.90
60039;DHT22;45916;52.734;6.544;2022-09-09T08:47:36;19.90;99.90
60039;DHT22;45916;52.734;6.544;2022-09-09T08:49:59;20.40;99.90
60039;DHT22;45916;52.734;6.544;2022-09-09T08:52:30;21.60;99.90
60039;DHT22;45916;52.734;6.544;2022-09-09T08:55:50;23.30;99.90
60039;DHT22;45916;52.734;6.544;2022-09-09T08:57:52;23.30;96.50
60039;DHT22;45916;52.734;6.544;2022-09-09T09:00:20;22.30;97.80
60039;DHT22;45916;52.734;6.544;2022-09-09T09:03:01;21.60;99.90
60039;DHT22;45916;52.734;6.544;2022-09-09T09:05:37;21.00;99.90
60039;DHT22;45916;52.734;6.544;2022-09-09T09:08:22;20.50;99.90
60039;DHT22;45916;52.734;6.544;2022-09-09T09:10:53;20.30;99.90
60039;DHT22;45916;52.734;6.544;2022-09-09T09:14:03;20.80;99.90
60039;DHT22;45916;52.734;6.544;2022-09-09T09:16:23;20.80;99.90
60039;DHT22;45916;52.734;6.544;2022-09-09T09:18:51;22.40;99.80
60039;DHT22;45916;52.734;6.544;2022-09-09T09:21:37;22.40;97.20
60039;DHT22;45916;52.734;6.544;2022-09-09T09:24:12;22.40;96.50
60039;DHT22;45916;52.734;6.544;2022-09-09T09:26:43;22.90;95.60
60039;DHT22;45916;52.734;6.544;2022-09-09T09:29:15;24.80;92.80
60039;DHT22;45916;52.734;6.544;2022-09-09T09:31:52;25.00;87.50
60039;DHT22;45916;52.734;6.544;2022-09-09T09:34:20;24.20;84.60
60039;DHT22;45916;52.734;6.544;2022-09-09T09:39:32;23.60;90.00
60039;DHT22;45916;52.734;6.544;2022-09-09T09:42:14;23.20;88.20
60039;DHT22;45916;52.734;6.544;2022-09-09T09:44:41;22.70;90.90
60039;DHT22;45916;52.734;6.544;2022-09-09T09:47:21;22.30;91.60
60039;DHT22;45916;52.734;6.544;2022-09-09T09:49:58;21.80;92.40
60039;DHT22;45916;52.734;6.544;2022-09-09T09:52:29;21.20;94.70
60039;DHT22;45916;52.734;6.544;2022-09-09T09:54:57;20.80;95.80
60039;DHT22;45916;52.734;6.544;2022-09-09T09:57:26;20.50;97.30
60039;DHT22;45916;52.734;6.544;2022-09-09T10:00:16;20.20;99.00
60039;DHT22;45916;52.734;6.544;2022-09-09T10:02:44;20.20;99.90
60039;DHT22;45916;52.734;6.544;2022-09-09T10:05:20;20.50;99.90
60039;DHT22;45916;52.734;6.544;2022-09-09T10:07:47;21.50;96.90
60039;DHT22;45916;52.734;6.544;2022-09-09T10:10:25;22.50;95.30
60039;DHT22;45916;52.734;6.544;2022-09-09T10:13:11;23.50;92.80
60039;DHT22;45916;52.734;6.544;2022-09-09T10:24:37;23.00;84.70
60039;DHT22;45916;52.734;6.544;2022-09-09T10:27:33;22.60;89.20
60039;DHT22;45916;52.734;6.544;2022-09-09T10:30:22;22.80;88.60
60039;DHT22;45916;52.734;6.544;2022-09-09T10:33:13;22.50;90.70
60039;DHT22;45916;52.734;6.544;2022-09-09T10:36:17;22.50;91.10
60039;DHT22;45916;52.734;6.544;2022-09-09T10:39:02;22.20;91.00
60039;DHT22;45916;52.734;6.544;2022-09-09T10:44:36;22.20;91.10
60039;DHT22;45916;52.734;6.544;2022-09-09T10:47:38;22.00;90.40
60039;DHT22;45916;52.734;6.544;2022-09-09T10:55:42;21.00;92.50
60039;DHT22;45916;52.734;6.544;2022-09-09T11:01:09;21.90;93.70
60039;DHT22;45916;52.734;6.544;2022-09-09T11:03:39;22.50;91.50
60039;DHT22;45916;52.734;6.544;2022-09-09T11:06:14;22.30;91.10
60039;DHT22;45916;52.734;6.544;2022-09-09T11:08:41;22.30;91.00
60039;DHT22;45916;52.734;6.544;2022-09-09T11:11:27;22.10;90.70
60039;DHT22;45916;52.734;6.544;2022-09-09T11:14:03;21.70;90.60
60039;DHT22;45916;52.734;6.544;2022-09-09T11:16:47;21.20;90.80
60039;DHT22;45916;52.734;6.544;2022-09-09T11:19:24;21.10;92.20
60039;DHT22;45916;52.734;6.544;2022-09-09T11:21:53;21.00;92.10
60039;DHT22;45916;52.734;6.544;2022-09-09T11:24:40;20.90;92.50
60039;DHT22;45916;52.734;6.544;2022-09-09T11:27:10;20.80;93.00
60039;DHT22;45916;52.734;6.544;2022-09-09T11:40:18;20.50;95.90
60039;DHT22;45916;52.734;6.544;2022-09-09T11:42:46;20.70;95.90
60039;DHT22;45916;52.734;6.544;2022-09-09T11:45:26;21.10;96.30
60039;DHT22;45916;52.734;6.544;2022-09-09T11:47:58;21.60;95.90
60039;DHT22;45916;52.734;6.544;2022-09-09T11:52:50;22.40;91.40
60039;DHT22;45916;52.734;6.544;2022-09-09T11:55:32;22.50;91.60
60039;DHT22;45916;52.734;6.544;2022-09-09T11:58:04;22.30;90.20
60039;DHT22;45916;52.734;6.544;2022-09-09T12:00:43;22.00;89.50
60039;DHT22;45916;52.734;6.544;2022-09-09T12:05:57;21.20;90.80
60039;DHT22;45916;52.734;6.544;2022-09-09T12:08:27;20.80;91.70
60039;DHT22;45916;52.734;6.544;2022-09-09T12:10:58;20.60;92.60
60039;DHT22;45916;52.734;6.544;2022-09-09T12:13:26;20.60;92.60
60039;DHT22;45916;52.734;6.544;2022-09-09T12:15:54;20.70;93.20
60039;DHT22;45916;52.734;6.544;2022-09-09T12:18:26;20.90;92.90
60039;DHT22;45916;52.734;6.544;2022-09-09T12:21:21;21.10;93.50
60039;DHT22;45916;52.734;6.544;2022-09-09T12:24:23;21.30;93.10
60039;DHT22;45916;52.734;6.544;2022-09-09T12:30:10;21.70;90.60
60039;DHT22;45916;52.734;6.544;2022-09-09T12:32:36;21.50;91.20
60039;DHT22;45916;52.734;6.544;2022-09-09T12:35:22;21.20;91.90
60039;DHT22;45916;52.734;6.544;2022-09-09T12:38:00;21.10;92.50
60039;DHT22;45916;52.734;6.544;2022-09-09T12:40:31;21.10;93.50
60039;DHT22;45916;52.734;6.544;2022-09-09T12:42:58;21.30;92.70
60039;DHT22;45916;52.734;6.544;2022-09-09T12:45:29;21.40;93.30
60039;DHT22;45916;52.734;6.544;2022-09-09T12:48:03;21.60;93.30
60039;DHT22;45916;52.734;6.544;2022-09-09T12:50:32;22.00;93.70
60039;DHT22;45916;52.734;6.544;2022-09-09T12:53:06;21.70;91.30
60039;DHT22;45916;52.734;6.544;2022-09-09T12:55:36;21.50;91.70
60039;DHT22;45916;52.734;6.544;2022-09-09T12:58:04;21.50;93.10
60039;DHT22;45916;52.734;6.544;2022-09-09T13:00:31;21.60;93.00
60039;DHT22;45916;52.734;6.544;2022-09-09T13:03:00;21.90;93.50
60039;DHT22;45916;52.734;6.544;2022-09-09T13:05:35;22.00;92.20
60039;DHT22;45916;52.734;6.544;2022-09-09T13:08:08;22.30;91.30
60039;DHT22;45916;52.734;6.544;2022-09-09T13:10:46;22.40;90.80
60039;DHT22;45916;52.734;6.544;2022-09-09T13:13:19;22.70;90.00
60039;DHT22;45916;52.734;6.544;2022-09-09T13:15:51;22.80;86.20
60039;DHT22;45916;52.734;6.544;2022-09-09T13:18:21;22.80;86.80
60039;DHT22;45916;52.734;6.544;2022-09-09T13:20:49;22.80;86.70
60039;DHT22;45916;52.734;6.544;2022-09-09T13:23:16;22.30;85.80
60039;DHT22;45916;52.734;6.544;2022-09-09T13:25:57;21.80;88.70
60039;DHT22;45916;52.734;6.544;2022-09-09T13:28:26;21.70;89.40
60039;DHT22;45916;52.734;6.544;2022-09-09T13:31:00;21.50;90.00
60039;DHT22;45916;52.734;6.544;2022-09-09T13:33:34;21.40;90.50
60039;DHT22;45916;52.734;6.544;2022-09-09T13:36:11;21.50;91.50
60039;DHT22;45916;52.734;6.544;2022-09-09T13:38:59;21.60;92.90
60039;DHT22;45916;52.734;6.544;2022-09-09T13:41:31;21.90;93.80
60039;DHT22;45916;52.734;6.544;2022-09-09T13:43:58;22.00;92.50
60039;DHT22;45916;52.734;6.544;2022-09-09T13:49:17;22.20;93.80
60039;DHT22;45916;52.734;6.544;2022-09-09T13:51:51;21.90;88.70
60039;DHT22;45916;52.734;6.544;2022-09-09T13:54:20;21.10;91.50
60039;DHT22;45916;52.734;6.544;2022-09-09T13:56:46;20.40;93.10
60039;DHT22;45916;52.734;6.544;2022-09-09T13:59:15;20.20;95.60
60039;DHT22;45916;52.734;6.544;2022-09-09T14:01:41;20.20;95.60
60039;DHT22;45916;52.734;6.544;2022-09-09T14:04:07;20.30;96.30
60039;DHT22;45916;52.734;6.544;2022-09-09T14:06:38;20.40;97.40
60039;DHT22;45916;52.734;6.544;2022-09-09T14:09:05;20.40;95.50
60039;DHT22;45916;52.734;6.544;2022-09-09T14:11:31;20.10;96.80
60039;DHT22;45916;52.734;6.544;2022-09-09T14:13:57;20.00;97.60
60039;DHT22;45916;52.734;6.544;2022-09-09T14:16:23;19.60;99.10
60039;DHT22;45916;52.734;6.544;2022-09-09T14:18:48;19.40;99.90
60039;DHT22;45916;52.734;6.544;2022-09-09T14:21:14;19.40;99.90
60039;DHT22;45916;52.734;6.544;2022-09-09T14:23:41;19.30;99.90
60039;DHT22;45916;52.734;6.544;2022-09-09T14:26:07;19.30;99.90
60039;DHT22;45916;52.734;6.544;2022-09-09T14:28:34;19.40;99.90
60039;DHT22;45916;52.734;6.544;2022-09-09T14:31:01;19.60;99.90
60039;DHT22;45916;52.734;6.544;2022-09-09T14:33:27;19.60;99.90
60039;DHT22;45916;52.734;6.544;2022-09-09T14:36:02;19.80;99.90
60039;DHT22;45916;52.734;6.544;2022-09-09T14:38:34;19.90;99.90
60039;DHT22;45916;52.734;6.544;2022-09-09T14:41:01;19.80;99.90
60039;DHT22;45916;52.734;6.544;2022-09-09T14:43:30;19.70;99.90
60039;DHT22;45916;52.734;6.544;2022-09-09T14:46:07;19.50;99.90
60039;DHT22;45916;52.734;6.544;2022-09-09T14:48:34;19.50;99.90
60039;DHT22;45916;52.734;6.544;2022-09-09T14:51:07;19.50;99.90
60039;DHT22;45916;52.734;6.544;2022-09-09T14:53:33;19.50;99.90
60039;DHT22;45916;52.734;6.544;2022-09-09T14:56:07;19.50;99.90
60039;DHT22;45916;52.734;6.544;2022-09-09T14:58:34;19.40;99.90
60039;DHT22;45916;52.734;6.544;2022-09-09T15:01:08;19.30;99.90
60039;DHT22;45916;52.734;6.544;2022-09-09T15:03:38;19.30;99.90
60039;DHT22;45916;52.734;6.544;2022-09-09T15:06:12;19.20;99.90
60039;DHT22;45916;52.734;6.544;2022-09-09T15:08:41;19.10;99.90
60039;DHT22;45916;52.734;6.544;2022-09-09T15:11:06;19.10;99.90
60039;DHT22;45916;52.734;6.544;2022-09-09T15:13:34;19.00;99.90
60039;DHT22;45916;52.734;6.544;2022-09-09T15:16:07;18.90;99.90
60039;DHT22;45916;52.734;6.544;2022-09-09T15:18:33;18.90;99.90
60039;DHT22;45916;52.734;6.544;2022-09-09T15:21:00;18.90;99.90
60039;DHT22;45916;52.734;6.544;2022-09-09T15:23:27;18.80;99.90
60039;DHT22;45916;52.734;6.544;2022-09-09T15:25:54;18.90;99.90
60039;DHT22;45916;52.734;6.544;2022-09-09T15:28:20;18.80;99.90
60039;DHT22;45916;52.734;6.544;2022-09-09T15:30:50;18.80;99.90
60039;DHT22;45916;52.734;6.544;2022-09-09T15:33:20;18.70;99.90
60039;DHT22;45916;52.734;6.544;2022-09-09T15:35:47;18.60;99.90
60039;DHT22;45916;52.734;6.544;2022-09-09T15:38:13;18.50;99.90
60039;DHT22;45916;52.734;6.544;2022-09-09T15:40:40;18.60;99.90
60039;DHT22;45916;52.734;6.544;2022-09-09T15:43:07;18.60;99.90
60039;DHT22;45916;52.734;6.544;2022-09-09T15:45:35;18.50;99.90
60039;DHT22;45916;52.734;6.544;2022-09-09T15:48:01;18.50;99.90
60039;DHT22;45916;52.734;6.544;2022-09-09T15:50:27;18.40;99.90
60039;DHT22;45916;52.734;6.544;2022-09-09T15:52:57;18.40;99.90
60039;DHT22;45916;52.734;6.544;2022-09-09T15:55:23;18.50;99.90
60039;DHT22;45916;52.734;6.544;2022-09-09T15:57:52;18.50;99.90
60039;DHT22;45916;52.734;6.544;2022-09-09T16:00:19;18.60;99.90
60039;DHT22;45916;52.734;6.544;2022-09-09T16:02:47;18.80;99.90
60039;DHT22;45916;52.734;6.544;2022-09-09T16:05:13;18.80;99.90
60039;DHT22;45916;52.734;6.544;2022-09-09T16:07:38;18.70;99.90
60039;DHT22;45916;52.734;6.544;2022-09-09T16:10:04;18.70;99.90
60039;DHT22;45916;52.734;6.544;2022-09-09T16:12:31;18.70;99.90
60039;DHT22;45916;52.734;6.544;2022-09-09T16:14:57;18.60;99.90
60039;DHT22;45916;52.734;6.544;2022-09-09T16:17:22;18.50;99.90
60039;DHT22;45916;52.734;6.544;2022-09-09T16:19:48;18.50;99.90
60039;DHT22;45916;52.734;6.544;2022-09-09T16:22:14;18.40;99.90
60039;DHT22;45916;52.734;6.544;2022-09-09T16:24:40;18.30;99.90
60039;DHT22;45916;52.734;6.544;2022-09-09T16:27:06;18.30;99.90
60039;DHT22;45916;52.734;6.544;2022-09-09T16:29:32;18.20;99.90
60039;DHT22;45916;52.734;6.544;2022-09-09T16:31:58;18.10;99.90
60039;DHT22;45916;52.734;6.544;2022-09-09T16:34:25;18.00;99.90
60039;DHT22;45916;52.734;6.544;2022-09-09T16:36:51;17.90;99.90
60039;DHT22;45916;52.734;6.544;2022-09-09T16:39:20;17.80;99.90
60039;DHT22;45916;52.734;6.544;2022-09-09T16:41:47;17.80;99.90
60039;DHT22;45916;52.734;6.544;2022-09-09T16:44:15;17.70;99.90
60039;DHT22;45916;52.734;6.544;2022-09-09T16:46:43;17.70;99.90
60039;DHT22;45916;52.734;6.544;2022-09-09T16:49:11;17.60;99.90
60039;DHT22;45916;52.734;6.544;2022-09-09T16:51:38;17.60;99.90
60039;DHT22;45916;52.734;6.544;2022-09-09T16:54:06;17.50;99.90
60039;DHT22;45916;52.734;6.544;2022-09-09T16:56:33;17.50;99.90
60039;DHT22;45916;52.734;6.544;2022-09-09T16:59:02;17.50;99.90
60039;DHT22;45916;52.734;6.544;2022-09-09T17:01:32;17.40;99.90
60039;DHT22;45916;52.734;6.544;2022-09-09T17:04:00;17.40;99.90
60039;DHT22;45916;52.734;6.544;2022-09-09T17:06:30;17.30;99.90
60039;DHT22;45916;52.734;6.544;2022-09-09T17:08:58;17.30;99.90
60039;DHT22;45916;52.734;6.544;2022-09-09T17:11:24;17.30;99.90
60039;DHT22;45916;52.734;6.544;2022-09-09T17:13:50;17.20;99.90
60039;DHT22;45916;52.734;6.544;2022-09-09T17:16:19;17.20;99.90
60039;DHT22;45916;52.734;6.544;2022-09-09T17:18:47;17.20;99.90
60039;DHT22;45916;52.734;6.544;2022-09-09T17:21:15;17.20;99.90
60039;DHT22;45916;52.734;6.544;2022-09-09T17:23:41;17.30;99.90
60039;DHT22;45916;52.734;6.544;2022-09-09T17:26:10;17.20;99.90
60039;DHT22;45916;52.734;6.544;2022-09-09T17:28:38;17.20;99.90